Terminal Aerodrome Forecast
Issued by NWS Louisville, KY

Home | Current Version | Previous Version | Text Only | Print | Product List | Glossary On
Versions: 1 2 3 4 5 6 7 8 9 10 11 12 13 14 15 16 17
000
FTUS43 KLMK 200500
TAFBWG
TAF
KBWG 200526Z 2006/2106 00000KT P6SM BKN150
     FM201500 22008KT P6SM SCT035 BKN110
     FM210000 VRB03KT P6SM BKN040=

USA.gov is the U.S. government's official web portal to all federal, state and local government web resources and services.